createdAt,value
2022-11-23T00:01:28.603Z,38.03
2022-11-23T00:04:00.587Z,38.10
2022-11-23T00:06:27.072Z,36.67
2022-11-23T00:08:54.460Z,36.03
2022-11-23T00:11:22.694Z,36.05
2022-11-23T00:13:49.355Z,35.29
2022-11-23T00:16:21.495Z,36.81
2022-11-23T00:18:48.384Z,36.40
2022-11-23T00:21:17.191Z,36.33
2022-11-23T00:23:44.864Z,36.62
2022-11-23T00:26:12.519Z,36.50
2022-11-23T00:28:40.515Z,35.02
2022-11-23T00:31:07.206Z,38.25
2022-11-23T00:33:33.748Z,36.76
2022-11-23T00:36:02.686Z,35.74
2022-11-23T00:38:29.375Z,36.19
2022-11-23T00:41:07.194Z,35.80
2022-11-23T00:43:34.100Z,36.53
2022-11-23T00:46:16.892Z,36.63
2022-11-23T00:48:44.906Z,35.71
2022-11-23T00:51:17.049Z,36.17
2022-11-23T00:53:43.819Z,36.03
2022-11-23T00:56:10.526Z,35.51
2022-11-23T00:58:38.768Z,35.09
2022-11-23T01:01:13.756Z,35.55
2022-11-23T01:03:46.267Z,35.45
2022-11-23T01:06:18.576Z,35.68
2022-11-23T01:08:55.954Z,34.48
2022-11-23T01:11:24.523Z,37.77
2022-11-23T01:13:51.686Z,36.99
2022-11-23T01:16:24.794Z,36.45
2022-11-23T01:18:59.999Z,34.93
2022-11-23T01:21:28.164Z,35.47
2022-11-23T01:23:55.299Z,35.15
2022-11-23T01:26:22.164Z,36.06
2022-11-23T01:28:49.151Z,36.08
2022-11-23T01:31:21.652Z,37.41
2022-11-23T01:33:48.046Z,35.47
2022-11-23T01:36:17.582Z,35.88
2022-11-23T01:38:45.330Z,36.33
2022-11-23T01:41:18.030Z,38.47
2022-11-23T01:43:44.866Z,38.82
2022-11-23T01:46:12.049Z,37.79
2022-11-23T01:48:50.852Z,36.46
2022-11-23T01:51:23.030Z,35.53
2022-11-23T01:53:54.361Z,36.19
2022-11-23T01:56:26.904Z,37.54
2022-11-23T01:58:56.848Z,36.47
2022-11-23T02:01:23.268Z,37.04
2022-11-23T02:03:51.712Z,36.60
2022-11-23T02:06:19.573Z,38.79
2022-11-23T02:08:47.886Z,38.65
2022-11-23T02:11:15.467Z,38.69
2022-11-23T02:13:44.520Z,38.81
2022-11-23T02:16:11.707Z,37.23
2022-11-23T02:18:41.433Z,38.75
2022-11-23T02:21:07.845Z,38.20
2022-11-23T02:23:52.706Z,38.64
2022-11-23T02:26:24.659Z,39.88
2022-11-23T02:29:14.232Z,39.89
2022-11-23T02:31:40.576Z,42.15
2022-11-23T02:34:07.305Z,38.76
2022-11-23T02:36:41.101Z,41.19
2022-11-23T02:39:32.926Z,40.16
2022-11-23T02:42:00.294Z,39.66
2022-11-23T02:44:37.324Z,39.72
2022-11-23T02:47:05.392Z,38.33
2022-11-23T02:49:32.165Z,43.45
2022-11-23T02:51:58.731Z,42.92
2022-11-23T02:54:25.155Z,44.00
2022-11-23T02:56:51.553Z,42.13
2022-11-23T02:59:18.471Z,42.17
2022-11-23T03:01:44.939Z,41.60
2022-11-23T03:04:11.367Z,42.58
2022-11-23T03:06:37.764Z,43.33
2022-11-23T03:09:04.763Z,43.77
2022-11-23T03:11:31.438Z,45.33
2022-11-23T03:13:58.495Z,39.30
2022-11-23T03:16:25.016Z,40.62
2022-11-23T03:18:51.600Z,39.95
2022-11-23T03:21:18.219Z,38.90
2022-11-23T03:23:45.308Z,37.28
2022-11-23T03:26:13.266Z,39.60
2022-11-23T03:28:39.884Z,39.70
2022-11-23T03:31:06.509Z,41.85
2022-11-23T03:33:33.823Z,42.07
2022-11-23T03:36:00.251Z,40.27
2022-11-23T03:38:26.928Z,37.82
2022-11-23T03:40:53.413Z,39.14
2022-11-23T03:43:19.785Z,39.70
2022-11-23T03:45:46.142Z,39.87
2022-11-23T03:48:12.583Z,39.44
2022-11-23T03:50:39.035Z,36.86
2022-11-23T03:53:06.128Z,39.58
2022-11-23T03:55:33.260Z,38.53
2022-11-23T03:57:59.733Z,38.82
2022-11-23T04:00:27.466Z,42.44
2022-11-23T04:02:54.009Z,41.26
2022-11-23T04:05:20.526Z,39.96
2022-11-23T04:07:47.861Z,36.78
2022-11-23T04:10:16.215Z,36.11
2022-11-23T04:12:42.625Z,35.21
2022-11-23T04:15:09.648Z,36.58
2022-11-23T04:17:36.081Z,36.85
2022-11-23T04:20:02.570Z,37.71
2022-11-23T04:22:29.015Z,35.68
2022-11-23T04:24:55.345Z,38.40
2022-11-23T04:27:21.715Z,35.30
2022-11-23T04:29:48.086Z,36.43
2022-11-23T04:32:14.627Z,34.24
2022-11-23T04:34:41.031Z,35.82
2022-11-23T04:37:12.904Z,34.68
2022-11-23T04:39:39.736Z,35.08
2022-11-23T04:42:06.125Z,35.82
2022-11-23T04:44:32.514Z,38.03
2022-11-23T04:46:58.973Z,35.30
2022-11-23T04:49:25.315Z,35.25
2022-11-23T04:51:51.662Z,37.36
2022-11-23T04:54:18.247Z,37.93
2022-11-23T04:56:44.632Z,36.72
2022-11-23T04:59:11.092Z,39.88
2022-11-23T05:01:37.561Z,40.05
2022-11-23T05:04:04.175Z,37.51
2022-11-23T05:06:30.532Z,37.79
2022-11-23T05:08:56.904Z,39.51
2022-11-23T05:11:23.413Z,38.90
2022-11-23T05:13:49.805Z,39.62
2022-11-23T05:16:16.206Z,36.56
2022-11-23T05:18:42.639Z,38.87
2022-11-23T05:21:09.018Z,37.34
2022-11-23T05:23:35.418Z,37.47
2022-11-23T05:26:01.889Z,36.26
2022-11-23T05:28:40.335Z,36.16
2022-11-23T05:31:07.822Z,36.16
2022-11-23T05:33:34.659Z,35.69
2022-11-23T05:36:01.040Z,37.71
2022-11-23T05:38:27.706Z,41.00
2022-11-23T05:40:54.182Z,41.87
2022-11-23T05:43:20.526Z,43.42
2022-11-23T05:45:46.891Z,40.83
2022-11-23T05:48:13.271Z,40.71
2022-11-23T05:50:39.648Z,38.21
2022-11-23T05:53:06.007Z,37.71
2022-11-23T05:55:32.576Z,36.67
2022-11-23T05:57:58.927Z,37.72
2022-11-23T06:00:25.276Z,38.54
2022-11-23T06:02:51.626Z,40.95
2022-11-23T06:05:18.316Z,42.78
2022-11-23T06:07:44.817Z,43.44
2022-11-23T06:10:12.077Z,44.45
2022-11-23T06:12:38.428Z,43.04
2022-11-23T06:15:05.312Z,42.08
2022-11-23T06:17:31.782Z,42.08
2022-11-23T06:19:58.192Z,41.50
2022-11-23T06:22:24.599Z,40.21
2022-11-23T06:24:50.971Z,38.52
2022-11-23T06:27:18.292Z,39.19
2022-11-23T06:29:46.815Z,39.16
2022-11-23T06:32:13.480Z,41.52
2022-11-23T06:34:39.930Z,41.80
2022-11-23T06:37:06.426Z,41.59
2022-11-23T06:39:33.158Z,38.75
2022-11-23T06:42:16.862Z,39.93
2022-11-23T06:44:46.082Z,43.50
2022-11-23T06:47:16.607Z,43.10
2022-11-23T06:49:44.076Z,42.01
2022-11-23T06:52:10.426Z,42.01
2022-11-23T06:54:36.807Z,44.28
2022-11-23T06:57:03.186Z,43.80
2022-11-23T06:59:29.689Z,41.38
2022-11-23T07:01:56.178Z,43.48
2022-11-23T07:04:22.648Z,44.66
2022-11-23T07:06:49.038Z,42.38
2022-11-23T07:09:15.489Z,43.18
2022-11-23T07:11:42.051Z,41.61
2022-11-23T07:14:08.540Z,42.20
2022-11-23T07:16:34.903Z,42.90
2022-11-23T07:19:01.241Z,40.20
2022-11-23T07:21:27.641Z,39.27
2022-11-23T07:23:54.053Z,41.25
2022-11-23T07:26:20.457Z,42.03
2022-11-23T07:28:46.849Z,42.43
2022-11-23T07:31:15.942Z,43.99
2022-11-23T07:33:48.359Z,45.12
2022-11-23T07:36:15.116Z,45.11
2022-11-23T07:38:41.495Z,42.98
2022-11-23T07:41:08.236Z,43.60
2022-11-23T07:43:34.635Z,44.81
2022-11-23T07:46:00.990Z,41.48
2022-11-23T07:48:29.736Z,42.72
2022-11-23T07:50:59.669Z,43.98
2022-11-23T07:53:26.608Z,42.77
2022-11-23T07:55:58.621Z,42.10
2022-11-23T07:58:25.546Z,44.65
2022-11-23T08:00:52.414Z,44.85
2022-11-23T08:03:28.572Z,43.26
2022-11-23T08:05:55.782Z,43.41
2022-11-23T08:08:22.527Z,44.93
2022-11-23T08:10:53.363Z,46.81
2022-11-23T08:13:21.436Z,48.43
2022-11-23T08:15:53.825Z,41.59
2022-11-23T08:18:20.844Z,46.37
2022-11-23T08:20:47.253Z,42.82
2022-11-23T08:23:13.636Z,47.92
2022-11-23T08:25:40.019Z,48.15
2022-11-23T08:28:06.481Z,47.24
2022-11-23T08:30:34.320Z,47.47
2022-11-23T08:33:08.384Z,44.64
2022-11-23T08:35:36.453Z,45.38
2022-11-23T08:38:06.840Z,48.17
2022-11-23T08:40:33.567Z,48.49
2022-11-23T08:42:59.908Z,44.46
2022-11-23T08:45:26.870Z,44.48
2022-11-23T08:47:54.020Z,48.28
2022-11-23T08:50:20.399Z,48.65
2022-11-23T08:52:46.856Z,47.83
2022-11-23T08:55:14.496Z,48.68
2022-11-23T08:57:40.897Z,48.29
2022-11-23T09:00:08.096Z,48.70
2022-11-23T09:02:34.445Z,48.19
2022-11-23T09:05:00.908Z,48.32
2022-11-23T09:07:27.464Z,49.77
2022-11-23T09:09:53.897Z,48.35
2022-11-23T09:12:20.267Z,50.25
2022-11-23T09:14:46.632Z,50.29
2022-11-23T09:17:13.077Z,50.31
2022-11-23T09:19:39.468Z,51.15
2022-11-23T09:22:05.890Z,52.58
2022-11-23T09:24:32.638Z,50.83
2022-11-23T09:26:59.139Z,48.73
2022-11-23T09:29:25.922Z,49.10
2022-11-23T09:31:52.852Z,49.83
2022-11-23T09:34:19.434Z,50.70
2022-11-23T09:36:45.869Z,51.19
2022-11-23T09:39:12.536Z,50.86
2022-11-23T09:42:03.731Z,49.65
2022-11-23T09:44:54.222Z,51.50
2022-11-23T09:47:29.638Z,51.93
2022-11-23T09:50:08.249Z,52.68
2022-11-23T09:52:45.306Z,52.22
2022-11-23T09:55:40.169Z,52.38
2022-11-23T09:58:07.193Z,52.40
2022-11-23T10:00:38.732Z,51.55
2022-11-23T10:03:05.148Z,53.81
2022-11-23T10:05:38.241Z,52.84
2022-11-23T10:08:17.616Z,52.60
2022-11-23T10:10:52.027Z,53.14
2022-11-23T10:13:27.106Z,52.63
2022-11-23T10:16:10.684Z,51.07
2022-11-23T10:19:14.746Z,49.36
2022-11-23T10:21:59.399Z,48.52
2022-11-23T10:24:34.037Z,48.50
2022-11-23T10:27:02.333Z,49.86
2022-11-23T10:29:31.781Z,51.70
2022-11-23T10:31:59.208Z,49.39
2022-11-23T10:34:48.828Z,47.06
2022-11-23T10:37:16.997Z,49.04
2022-11-23T10:39:43.769Z,48.07
2022-11-23T10:42:52.090Z,46.49
2022-11-23T10:45:21.992Z,44.71
2022-11-23T10:47:59.304Z,42.48
2022-11-23T10:50:37.644Z,42.12
2022-11-23T10:53:26.126Z,42.02
2022-11-23T10:55:58.365Z,43.64
2022-11-23T10:58:31.362Z,43.57
2022-11-23T11:01:03.276Z,45.20
2022-11-23T11:03:33.180Z,43.24
2022-11-23T11:06:09.812Z,45.03
2022-11-23T11:08:53.778Z,45.70
2022-11-23T11:11:27.851Z,45.40
2022-11-23T11:14:03.406Z,44.62
2022-11-23T11:16:32.606Z,46.31
2022-11-23T11:19:00.638Z,46.16
2022-11-23T11:21:35.028Z,46.43
2022-11-23T11:24:04.073Z,46.73
2022-11-23T11:26:33.299Z,45.13
2022-11-23T11:29:05.474Z,43.50
2022-11-23T11:32:02.828Z,45.18
2022-11-23T11:34:44.748Z,44.53
2022-11-23T11:37:18.828Z,44.42
2022-11-23T11:39:50.212Z,43.66
2022-11-23T11:42:23.562Z,45.23
2022-11-23T11:44:53.449Z,45.51
2022-11-23T11:47:33.998Z,47.11
2022-11-23T11:50:06.024Z,44.91
2022-11-23T11:52:40.798Z,46.60
2022-11-23T11:55:16.400Z,47.04
2022-11-23T11:57:48.796Z,45.88
2022-11-23T12:00:20.275Z,44.40
2022-11-23T12:03:06.582Z,46.50
2022-11-23T12:05:44.424Z,44.74
2022-11-23T12:08:41.766Z,45.32
2022-11-23T12:11:11.767Z,43.55
2022-11-23T12:13:42.930Z,43.41
2022-11-23T12:16:43.309Z,44.65
2022-11-23T12:19:15.995Z,41.85
2022-11-23T12:22:01.271Z,43.72
2022-11-23T12:24:39.647Z,42.84
2022-11-23T12:30:54.632Z,43.36
2022-11-23T12:34:00.863Z,42.46
2022-11-23T12:36:58.063Z,43.33
2022-11-23T12:39:57.746Z,44.38
2022-11-23T12:42:48.497Z,44.32
2022-11-23T12:45:33.167Z,42.47
2022-11-23T12:48:08.033Z,42.89
2022-11-23T12:50:43.523Z,43.79
2022-11-23T12:53:30.500Z,42.25
2022-11-23T12:56:05.995Z,43.39
2022-11-23T12:58:34.588Z,43.52
2022-11-23T13:01:12.989Z,43.54
2022-11-23T13:04:04.487Z,43.76
2022-11-23T13:07:12.253Z,43.30
2022-11-23T13:09:41.258Z,42.45
2022-11-23T13:12:44.935Z,43.11
2022-11-23T13:15:36.303Z,43.48
2022-11-23T13:18:27.654Z,41.81
2022-11-23T13:21:22.841Z,41.88
2022-11-23T13:23:49.516Z,43.24
2022-11-23T13:26:22.052Z,42.98
2022-11-23T13:28:51.378Z,43.54
2022-11-23T13:31:21.245Z,42.57
2022-11-23T13:33:53.389Z,42.03
2022-11-23T13:36:49.468Z,43.31
2022-11-23T13:39:52.610Z,45.06
2022-11-23T13:42:19.447Z,44.04
2022-11-23T13:44:46.086Z,43.08
2022-11-23T13:47:16.246Z,43.10
2022-11-23T13:49:46.211Z,44.31
2022-11-23T13:52:26.423Z,42.65
2022-11-23T13:55:11.221Z,42.89
2022-11-23T13:57:43.166Z,43.77
2022-11-23T14:00:47.234Z,45.77
2022-11-23T14:03:42.873Z,43.64
2022-11-23T14:06:27.305Z,44.27
2022-11-23T14:09:01.731Z,44.62
2022-11-23T14:11:28.901Z,45.01
2022-11-23T14:13:59.611Z,44.60
2022-11-23T14:17:07.756Z,45.24
2022-11-23T14:20:06.455Z,44.67
2022-11-23T14:23:04.417Z,45.20
2022-11-23T14:25:54.788Z,45.86
2022-11-23T14:28:33.706Z,46.64
2022-11-23T14:31:51.641Z,46.04
2022-11-23T14:34:57.740Z,46.17
2022-11-23T14:37:40.264Z,46.87
2022-11-23T14:40:20.411Z,46.38
2022-11-23T14:42:52.718Z,47.50
2022-11-23T14:45:21.489Z,48.96
2022-11-23T14:47:48.085Z,47.36
2022-11-23T14:50:28.843Z,47.32
2022-11-23T14:52:58.171Z,50.58
2022-11-23T14:55:28.060Z,49.55
2022-11-23T14:57:59.465Z,48.67
2022-11-23T15:00:28.963Z,49.42
2022-11-23T15:02:59.000Z,51.89
2022-11-23T15:05:33.023Z,53.26
2022-11-23T15:08:31.833Z,54.08
2022-11-23T15:11:09.602Z,51.36
2022-11-23T15:13:45.424Z,49.06
2022-11-23T15:16:14.488Z,53.27
2022-11-23T15:18:41.257Z,52.20
2022-11-23T15:21:10.358Z,52.06
2022-11-23T15:23:41.418Z,55.34
2022-11-23T15:26:34.591Z,54.72
2022-11-23T15:29:01.919Z,56.51
2022-11-23T15:31:32.922Z,56.85
2022-11-23T15:34:05.402Z,58.47
2022-11-23T15:36:35.655Z,54.03
2022-11-23T15:39:03.576Z,56.01
2022-11-23T15:41:30.652Z,57.08
2022-11-23T15:44:02.030Z,58.46
2022-11-23T15:46:37.466Z,58.99
2022-11-23T15:49:06.118Z,58.48
2022-11-23T15:51:41.519Z,60.55
2022-11-23T15:54:20.367Z,61.08
2022-11-23T15:56:49.164Z,61.57
2022-11-23T15:59:37.151Z,61.95
2022-11-23T16:02:06.938Z,63.21
2022-11-23T16:04:39.380Z,64.09
2022-11-23T16:07:16.749Z,62.81
2022-11-23T16:09:53.008Z,62.82
2022-11-23T16:12:23.153Z,62.40
2022-11-23T16:14:49.756Z,62.14
2022-11-23T16:17:27.840Z,63.29
2022-11-23T16:19:56.751Z,58.73
2022-11-23T16:22:39.514Z,59.36
2022-11-23T16:25:09.035Z,61.25
2022-11-23T16:27:36.795Z,61.66
2022-11-23T16:30:04.914Z,62.00
2022-11-23T16:32:31.894Z,61.88
2022-11-23T16:35:14.341Z,61.26
2022-11-23T16:37:40.676Z,62.60
2022-11-23T16:40:07.542Z,63.34
2022-11-23T16:42:33.894Z,64.31
2022-11-23T16:45:00.375Z,64.08
2022-11-23T16:47:28.187Z,63.91
2022-11-23T16:49:55.350Z,65.67
2022-11-23T16:52:22.819Z,64.94
2022-11-23T16:54:50.546Z,62.69
2022-11-23T16:57:33.263Z,63.26
2022-11-23T17:00:03.083Z,64.72
2022-11-23T17:02:29.552Z,64.98
2022-11-23T17:04:56.136Z,63.82
2022-11-23T17:07:22.575Z,61.96
2022-11-23T17:09:48.963Z,63.60
2022-11-23T17:12:17.840Z,64.73
2022-11-23T17:14:49.180Z,66.08
2022-11-23T17:17:22.711Z,66.97
2022-11-23T17:19:50.648Z,66.54
2022-11-23T17:22:19.014Z,64.27
2022-11-23T17:24:46.230Z,64.53
2022-11-23T17:27:15.856Z,63.91
2022-11-23T17:29:44.115Z,62.89
2022-11-23T17:32:14.992Z,62.26
2022-11-23T17:34:41.392Z,62.62
2022-11-23T17:37:17.634Z,60.28
2022-11-23T17:39:44.335Z,60.58
2022-11-23T17:42:11.704Z,61.23
2022-11-23T17:44:38.586Z,61.08
2022-11-23T17:47:06.597Z,59.96
2022-11-23T17:49:33.388Z,59.12
2022-11-23T17:51:59.927Z,60.58
2022-11-23T17:54:26.273Z,61.12
2022-11-23T17:56:52.823Z,61.23
2022-11-23T17:59:19.320Z,62.02
2022-11-23T18:01:45.754Z,62.58
2022-11-23T18:04:12.244Z,61.53
2022-11-23T18:06:38.755Z,61.83
2022-11-23T18:09:06.462Z,63.03
2022-11-23T18:11:32.930Z,61.43
2022-11-23T18:13:59.475Z,63.24
2022-11-23T18:16:26.011Z,64.58
2022-11-23T18:18:52.487Z,64.04
2022-11-23T18:21:19.117Z,64.01
2022-11-23T18:23:45.542Z,64.68
2022-11-23T18:26:14.835Z,65.41
2022-11-23T18:28:41.306Z,64.28
2022-11-23T18:31:08.439Z,65.27
2022-11-23T18:33:34.978Z,62.55
2022-11-23T18:36:05.271Z,61.22
2022-11-23T18:38:32.913Z,60.56
2022-11-23T18:40:59.299Z,60.50
2022-11-23T18:43:25.699Z,61.78
2022-11-23T18:45:52.609Z,63.26
2022-11-23T18:48:19.006Z,64.94
2022-11-23T18:50:45.383Z,64.11
2022-11-23T18:53:11.856Z,61.11
2022-11-23T18:55:38.275Z,60.04
2022-11-23T18:58:04.607Z,58.77
2022-11-23T19:00:31.061Z,61.46
2022-11-23T19:03:00.714Z,63.34
2022-11-23T19:05:30.463Z,63.50
2022-11-23T19:08:04.194Z,55.00
2022-11-23T19:10:38.270Z,44.91
2022-11-23T19:13:06.189Z,41.38
2022-11-23T19:15:33.273Z,42.16
2022-11-23T19:18:00.035Z,42.54
2022-11-23T19:20:26.535Z,43.52
2022-11-23T19:22:53.058Z,43.94
2022-11-23T19:25:19.494Z,48.05
2022-11-23T19:27:48.715Z,49.53
2022-11-23T19:30:15.556Z,51.22
2022-11-23T19:32:42.056Z,51.91
2022-11-23T19:35:08.480Z,44.63
2022-11-23T19:37:36.549Z,48.41
2022-11-23T19:40:03.503Z,51.51
2022-11-23T19:42:29.927Z,49.27
2022-11-23T19:44:56.281Z,44.05
2022-11-23T19:47:23.126Z,52.79
2022-11-23T19:49:49.588Z,45.94
2022-11-23T19:52:15.960Z,47.32
2022-11-23T19:54:42.292Z,48.70
2022-11-23T19:57:08.680Z,48.43
2022-11-23T19:59:35.480Z,46.00
2022-11-23T20:02:02.264Z,47.04
2022-11-23T20:04:28.953Z,44.99
2022-11-23T20:06:55.319Z,44.65
2022-11-23T20:09:23.367Z,45.57
2022-11-23T20:11:51.489Z,44.20
2022-11-23T20:14:18.597Z,46.00
2022-11-23T20:16:45.098Z,47.00
2022-11-23T20:19:11.588Z,49.18
2022-11-23T20:21:38.342Z,51.46
2022-11-23T20:24:07.911Z,50.40
2022-11-23T20:26:38.269Z,53.38
2022-11-23T20:29:05.834Z,53.51
2022-11-23T20:31:33.005Z,50.39
2022-11-23T20:33:59.972Z,49.05
2022-11-23T20:36:31.352Z,49.23
2022-11-23T20:39:00.770Z,52.25
2022-11-23T20:41:32.691Z,49.73
2022-11-23T20:44:01.612Z,50.90
2022-11-23T20:49:17.413Z,47.40
2022-11-23T20:51:43.782Z,47.00
2022-11-23T20:54:10.161Z,45.70
2022-11-23T20:56:38.601Z,46.49
2022-11-23T20:59:04.965Z,45.86
2022-11-23T21:01:31.496Z,45.93
2022-11-23T21:03:59.414Z,44.95
2022-11-23T21:06:27.093Z,44.75
2022-11-23T21:08:53.975Z,44.66
2022-11-23T21:11:40.180Z,44.82
2022-11-23T21:14:17.262Z,46.79
2022-11-23T21:16:53.200Z,47.05
2022-11-23T21:19:41.234Z,51.94
2022-11-23T21:22:10.650Z,49.49
2022-11-23T21:24:37.702Z,51.69
2022-11-23T21:27:05.813Z,49.73
2022-11-23T21:29:33.808Z,48.87
2022-11-23T21:32:01.413Z,48.69
2022-11-23T21:34:29.268Z,48.96
2022-11-23T21:36:57.154Z,49.50
2022-11-23T21:39:24.109Z,49.87
2022-11-23T21:41:52.318Z,49.66
2022-11-23T21:44:19.356Z,50.25
2022-11-23T21:46:46.065Z,50.37
2022-11-23T21:49:12.866Z,49.98
2022-11-23T21:51:39.827Z,49.15
2022-11-23T21:54:09.769Z,49.54
2022-11-23T21:56:36.169Z,53.16
2022-11-23T21:59:02.594Z,54.08
2022-11-23T22:01:33.918Z,53.98
2022-11-23T22:04:09.732Z,53.83
2022-11-23T22:06:39.286Z,52.95
2022-11-23T22:09:09.318Z,52.93
2022-11-23T22:11:37.314Z,53.15
2022-11-23T22:14:11.616Z,54.10
2022-11-23T22:16:40.791Z,55.13
2022-11-23T22:19:07.579Z,53.21
2022-11-23T22:21:36.139Z,56.38
2022-11-23T22:24:04.277Z,55.93
2022-11-23T22:26:31.072Z,55.39
2022-11-23T22:29:02.262Z,58.09
2022-11-23T22:31:33.757Z,56.49
2022-11-23T22:34:01.887Z,57.39
2022-11-23T22:36:28.587Z,58.50
2022-11-23T22:39:01.085Z,59.28
2022-11-23T22:41:28.547Z,60.01
2022-11-23T22:43:55.678Z,58.16
2022-11-23T22:46:24.433Z,59.16
2022-11-23T22:48:52.125Z,61.23
2022-11-23T22:51:22.875Z,61.76
2022-11-23T22:53:57.929Z,60.53
2022-11-23T22:56:25.571Z,61.08
2022-11-23T22:58:52.023Z,61.09
2022-11-23T23:01:23.485Z,60.98
2022-11-23T23:03:57.710Z,62.38
2022-11-23T23:06:26.679Z,63.11
2022-11-23T23:09:01.146Z,62.63
2022-11-23T23:11:30.775Z,63.40
2022-11-23T23:13:58.006Z,62.47
2022-11-23T23:16:25.008Z,62.92
2022-11-23T23:18:52.134Z,62.57
2022-11-23T23:21:21.712Z,63.57
2022-11-23T23:23:50.168Z,62.56
2022-11-23T23:26:19.247Z,63.01
2022-11-23T23:28:45.646Z,61.97
2022-11-23T23:31:16.036Z,63.34
2022-11-23T23:33:44.622Z,63.93
2022-11-23T23:36:16.618Z,63.82
2022-11-23T23:38:43.937Z,64.12
2022-11-23T23:41:11.294Z,64.81
2022-11-23T23:43:38.057Z,64.09
2022-11-23T23:46:07.028Z,65.31
2022-11-23T23:48:35.250Z,67.20
2022-11-23T23:51:16.013Z,65.53
2022-11-23T23:53:43.096Z,65.31
2022-11-23T23:56:17.671Z,66.96
2022-11-23T23:58:44.917Z,67.25
